sensor_id;sensor_type;location;lat;lon;timestamp;P1;durP1;ratioP1;P2;durP2;ratioP2
23658;SDS011;12006;42.666;23.326;2022-07-04T00:02:06;2.63;;;2.42;;
23658;SDS011;12006;42.666;23.326;2022-07-04T00:04:31;2.88;;;2.63;;
23658;SDS011;12006;42.666;23.326;2022-07-04T00:06:56;2.80;;;2.60;;
23658;SDS011;12006;42.666;23.326;2022-07-04T00:09:21;2.63;;;2.42;;
23658;SDS011;12006;42.666;23.326;2022-07-04T00:11:47;2.80;;;2.55;;
23658;SDS011;12006;42.666;23.326;2022-07-04T00:14:12;3.28;;;2.63;;
23658;SDS011;12006;42.666;23.326;2022-07-04T00:16:37;2.42;;;2.22;;
23658;SDS011;12006;42.666;23.326;2022-07-04T00:19:03;2.40;;;2.20;;
23658;SDS011;12006;42.666;23.326;2022-07-04T00:21:28;2.70;;;2.47;;
23658;SDS011;12006;42.666;23.326;2022-07-04T00:23:53;3.10;;;2.53;;
23658;SDS011;12006;42.666;23.326;2022-07-04T00:26:18;3.17;;;2.60;;
23658;SDS011;12006;42.666;23.326;2022-07-04T00:28:44;3.53;;;2.40;;
23658;SDS011;12006;42.666;23.326;2022-07-04T00:31:09;2.42;;;2.22;;
23658;SDS011;12006;42.666;23.326;2022-07-04T00:33:34;3.70;;;2.55;;
23658;SDS011;12006;42.666;23.326;2022-07-04T00:35:59;2.55;;;2.35;;
23658;SDS011;12006;42.666;23.326;2022-07-04T00:38:25;3.03;;;2.72;;
23658;SDS011;12006;42.666;23.326;2022-07-04T00:40:50;2.15;;;2.05;;
23658;SDS011;12006;42.666;23.326;2022-07-04T00:43:25;2.67;;;2.30;;
23658;SDS011;12006;42.666;23.326;2022-07-04T00:45:50;3.92;;;2.50;;
23658;SDS011;12006;42.666;23.326;2022-07-04T00:48:16;2.58;;;2.38;;
23658;SDS011;12006;42.666;23.326;2022-07-04T00:50:42;4.18;;;2.42;;
23658;SDS011;12006;42.666;23.326;2022-07-04T00:53:08;2.50;;;2.30;;
23658;SDS011;12006;42.666;23.326;2022-07-04T00:55:33;2.60;;;2.40;;
23658;SDS011;12006;42.666;23.326;2022-07-04T00:57:59;2.45;;;2.25;;
23658;SDS011;12006;42.666;23.326;2022-07-04T01:00:24;7.32;;;2.40;;
23658;SDS011;12006;42.666;23.326;2022-07-04T01:02:49;2.88;;;2.35;;
23658;SDS011;12006;42.666;23.326;2022-07-04T01:05:15;3.08;;;2.78;;
23658;SDS011;12006;42.666;23.326;2022-07-04T01:07:41;2.95;;;2.67;;
23658;SDS011;12006;42.666;23.326;2022-07-04T01:10:06;2.42;;;2.15;;
23658;SDS011;12006;42.666;23.326;2022-07-04T01:12:32;2.00;;;1.90;;
23658;SDS011;12006;42.666;23.326;2022-07-04T01:14:57;2.38;;;2.17;;
23658;SDS011;12006;42.666;23.326;2022-07-04T01:17:25;2.42;;;2.22;;
23658;SDS011;12006;42.666;23.326;2022-07-04T01:19:51;2.05;;;1.95;;
23658;SDS011;12006;42.666;23.326;2022-07-04T01:22:16;2.83;;;2.13;;
23658;SDS011;12006;42.666;23.326;2022-07-04T01:24:41;2.53;;;2.33;;
23658;SDS011;12006;42.666;23.326;2022-07-04T01:27:07;2.40;;;2.20;;
23658;SDS011;12006;42.666;23.326;2022-07-04T01:29:32;2.20;;;2.10;;
23658;SDS011;12006;42.666;23.326;2022-07-04T01:32:02;1.90;;;1.80;;
23658;SDS011;12006;42.666;23.326;2022-07-04T01:34:28;2.28;;;2.08;;
23658;SDS011;12006;42.666;23.326;2022-07-04T01:36:53;2.60;;;2.40;;
23658;SDS011;12006;42.666;23.326;2022-07-04T01:39:19;1.98;;;1.88;;
23658;SDS011;12006;42.666;23.326;2022-07-04T01:41:44;2.70;;;2.50;;
23658;SDS011;12006;42.666;23.326;2022-07-04T01:44:10;2.35;;;2.15;;
23658;SDS011;12006;42.666;23.326;2022-07-04T01:46:35;2.50;;;2.20;;
23658;SDS011;12006;42.666;23.326;2022-07-04T01:49:00;2.45;;;2.15;;
23658;SDS011;12006;42.666;23.326;2022-07-04T01:51:25;2.78;;;2.28;;
23658;SDS011;12006;42.666;23.326;2022-07-04T01:53:51;2.60;;;2.30;;
23658;SDS011;12006;42.666;23.326;2022-07-04T01:56:16;2.55;;;2.10;;
23658;SDS011;12006;42.666;23.326;2022-07-04T01:58:41;2.20;;;2.00;;
23658;SDS011;12006;42.666;23.326;2022-07-04T02:01:07;2.70;;;2.47;;
23658;SDS011;12006;42.666;23.326;2022-07-04T02:03:50;5.22;;;2.15;;
23658;SDS011;12006;42.666;23.326;2022-07-04T02:06:16;2.25;;;1.92;;
23658;SDS011;12006;42.666;23.326;2022-07-04T02:08:41;1.98;;;1.88;;
23658;SDS011;12006;42.666;23.326;2022-07-04T02:11:25;2.53;;;2.33;;
23658;SDS011;12006;42.666;23.326;2022-07-04T02:13:50;3.78;;;2.70;;
23658;SDS011;12006;42.666;23.326;2022-07-04T02:16:15;2.00;;;1.90;;
23658;SDS011;12006;42.666;23.326;2022-07-04T02:18:41;2.95;;;2.13;;
23658;SDS011;12006;42.666;23.326;2022-07-04T02:21:06;4.57;;;2.20;;
23658;SDS011;12006;42.666;23.326;2022-07-04T02:23:31;2.08;;;1.98;;
23658;SDS011;12006;42.666;23.326;2022-07-04T02:25:56;2.42;;;2.03;;
23658;SDS011;12006;42.666;23.326;2022-07-04T02:28:22;2.13;;;1.92;;
23658;SDS011;12006;42.666;23.326;2022-07-04T02:30:47;3.72;;;1.92;;
23658;SDS011;12006;42.666;23.326;2022-07-04T02:33:12;2.92;;;1.88;;
23658;SDS011;12006;42.666;23.326;2022-07-04T02:35:37;3.42;;;2.13;;
23658;SDS011;12006;42.666;23.326;2022-07-04T02:38:03;3.28;;;1.75;;
23658;SDS011;12006;42.666;23.326;2022-07-04T02:40:28;2.50;;;1.88;;
23658;SDS011;12006;42.666;23.326;2022-07-04T02:42:53;2.33;;;2.13;;
23658;SDS011;12006;42.666;23.326;2022-07-04T02:45:18;2.28;;;2.08;;
23658;SDS011;12006;42.666;23.326;2022-07-04T02:47:44;2.58;;;2.33;;
23658;SDS011;12006;42.666;23.326;2022-07-04T02:50:09;2.63;;;2.42;;
23658;SDS011;12006;42.666;23.326;2022-07-04T02:52:34;2.15;;;1.95;;
23658;SDS011;12006;42.666;23.326;2022-07-04T02:54:59;2.20;;;2.00;;
23658;SDS011;12006;42.666;23.326;2022-07-04T02:57:25;2.22;;;2.05;;
23658;SDS011;12006;42.666;23.326;2022-07-04T02:59:50;2.28;;;2.10;;
23658;SDS011;12006;42.666;23.326;2022-07-04T03:02:15;2.60;;;2.40;;
23658;SDS011;12006;42.666;23.326;2022-07-04T03:04:41;2.30;;;2.10;;
23658;SDS011;12006;42.666;23.326;2022-07-04T03:07:06;2.03;;;1.92;;
23658;SDS011;12006;42.666;23.326;2022-07-04T03:09:32;2.40;;;2.20;;
23658;SDS011;12006;42.666;23.326;2022-07-04T03:11:58;2.30;;;2.10;;
23658;SDS011;12006;42.666;23.326;2022-07-04T03:14:23;2.30;;;2.10;;
23658;SDS011;12006;42.666;23.326;2022-07-04T03:16:48;2.60;;;2.10;;
23658;SDS011;12006;42.666;23.326;2022-07-04T03:19:13;2.50;;;2.10;;
23658;SDS011;12006;42.666;23.326;2022-07-04T03:21:39;2.90;;;2.70;;
23658;SDS011;12006;42.666;23.326;2022-07-04T03:24:04;2.35;;;2.00;;
23658;SDS011;12006;42.666;23.326;2022-07-04T03:26:30;2.55;;;2.03;;
23658;SDS011;12006;42.666;23.326;2022-07-04T03:28:56;1.83;;;1.73;;
23658;SDS011;12006;42.666;23.326;2022-07-04T03:31:22;2.88;;;2.20;;
23658;SDS011;12006;42.666;23.326;2022-07-04T03:33:47;2.78;;;2.42;;
23658;SDS011;12006;42.666;23.326;2022-07-04T03:36:12;2.92;;;2.15;;
23658;SDS011;12006;42.666;23.326;2022-07-04T03:38:38;3.45;;;2.42;;
23658;SDS011;12006;42.666;23.326;2022-07-04T03:41:03;3.38;;;2.30;;
23658;SDS011;12006;42.666;23.326;2022-07-04T03:43:28;2.53;;;2.28;;
23658;SDS011;12006;42.666;23.326;2022-07-04T03:45:53;2.80;;;2.50;;
23658;SDS011;12006;42.666;23.326;2022-07-04T03:48:19;2.78;;;2.22;;
23658;SDS011;12006;42.666;23.326;2022-07-04T03:50:45;2.47;;;2.05;;
23658;SDS011;12006;42.666;23.326;2022-07-04T03:53:10;2.83;;;2.55;;
23658;SDS011;12006;42.666;23.326;2022-07-04T03:55:37;2.05;;;1.95;;
23658;SDS011;12006;42.666;23.326;2022-07-04T03:58:02;3.10;;;2.40;;
23658;SDS011;12006;42.666;23.326;2022-07-04T04:00:29;3.72;;;2.45;;
23658;SDS011;12006;42.666;23.326;2022-07-04T04:02:54;2.60;;;2.40;;
23658;SDS011;12006;42.666;23.326;2022-07-04T04:05:20;2.47;;;2.28;;
23658;SDS011;12006;42.666;23.326;2022-07-04T04:07:51;3.47;;;2.85;;
23658;SDS011;12006;42.666;23.326;2022-07-04T04:10:17;2.75;;;2.35;;
23658;SDS011;12006;42.666;23.326;2022-07-04T04:12:42;2.60;;;2.33;;
23658;SDS011;12006;42.666;23.326;2022-07-04T04:15:07;3.88;;;2.90;;
23658;SDS011;12006;42.666;23.326;2022-07-04T04:17:33;2.78;;;2.50;;
23658;SDS011;12006;42.666;23.326;2022-07-04T04:19:58;3.22;;;2.92;;
23658;SDS011;12006;42.666;23.326;2022-07-04T04:22:23;3.03;;;2.70;;
23658;SDS011;12006;42.666;23.326;2022-07-04T04:24:49;3.05;;;2.85;;
23658;SDS011;12006;42.666;23.326;2022-07-04T04:27:14;2.80;;;2.33;;
23658;SDS011;12006;42.666;23.326;2022-07-04T04:29:39;2.92;;;2.72;;
23658;SDS011;12006;42.666;23.326;2022-07-04T04:32:05;3.55;;;3.13;;
23658;SDS011;12006;42.666;23.326;2022-07-04T04:34:30;4.22;;;2.92;;
23658;SDS011;12006;42.666;23.326;2022-07-04T04:36:55;3.25;;;2.65;;
23658;SDS011;12006;42.666;23.326;2022-07-04T04:39:21;2.40;;;2.20;;
23658;SDS011;12006;42.666;23.326;2022-07-04T04:41:46;3.13;;;2.83;;
23658;SDS011;12006;42.666;23.326;2022-07-04T04:44:11;2.55;;;2.35;;
23658;SDS011;12006;42.666;23.326;2022-07-04T04:46:37;2.63;;;2.42;;
23658;SDS011;12006;42.666;23.326;2022-07-04T04:49:02;2.45;;;2.15;;
23658;SDS011;12006;42.666;23.326;2022-07-04T04:51:27;3.88;;;2.75;;
23658;SDS011;12006;42.666;23.326;2022-07-04T04:53:52;2.90;;;2.70;;
23658;SDS011;12006;42.666;23.326;2022-07-04T04:56:18;4.10;;;3.80;;
23658;SDS011;12006;42.666;23.326;2022-07-04T04:58:43;3.47;;;3.17;;
23658;SDS011;12006;42.666;23.326;2022-07-04T05:01:08;3.38;;;2.80;;
23658;SDS011;12006;42.666;23.326;2022-07-04T05:03:33;3.38;;;3.08;;
23658;SDS011;12006;42.666;23.326;2022-07-04T05:05:59;3.35;;;2.53;;
23658;SDS011;12006;42.666;23.326;2022-07-04T05:08:25;3.17;;;2.88;;
23658;SDS011;12006;42.666;23.326;2022-07-04T05:10:51;2.58;;;2.35;;
23658;SDS011;12006;42.666;23.326;2022-07-04T05:13:16;3.03;;;2.83;;
23658;SDS011;12006;42.666;23.326;2022-07-04T05:15:41;2.80;;;2.60;;
23658;SDS011;12006;42.666;23.326;2022-07-04T05:18:07;2.25;;;2.05;;
23658;SDS011;12006;42.666;23.326;2022-07-04T05:20:32;2.08;;;1.90;;
23658;SDS011;12006;42.666;23.326;2022-07-04T05:22:58;2.40;;;2.22;;
23658;SDS011;12006;42.666;23.326;2022-07-04T05:25:23;3.47;;;2.72;;
23658;SDS011;12006;42.666;23.326;2022-07-04T05:27:49;2.90;;;2.47;;
23658;SDS011;12006;42.666;23.326;2022-07-04T05:30:14;3.70;;;3.40;;
23658;SDS011;12006;42.666;23.326;2022-07-04T05:32:40;3.00;;;2.78;;
23658;SDS011;12006;42.666;23.326;2022-07-04T05:35:05;3.25;;;2.95;;
23658;SDS011;12006;42.666;23.326;2022-07-04T05:37:31;3.28;;;2.17;;
23658;SDS011;12006;42.666;23.326;2022-07-04T05:39:56;3.55;;;2.90;;
23658;SDS011;12006;42.666;23.326;2022-07-04T05:42:22;2.40;;;2.20;;
23658;SDS011;12006;42.666;23.326;2022-07-04T05:44:47;3.47;;;3.20;;
23658;SDS011;12006;42.666;23.326;2022-07-04T05:47:12;4.65;;;3.70;;
23658;SDS011;12006;42.666;23.326;2022-07-04T05:49:37;4.13;;;3.05;;
23658;SDS011;12006;42.666;23.326;2022-07-04T05:52:03;2.70;;;2.50;;
23658;SDS011;12006;42.666;23.326;2022-07-04T05:54:28;3.40;;;3.08;;
23658;SDS011;12006;42.666;23.326;2022-07-04T05:56:53;3.17;;;2.97;;
23658;SDS011;12006;42.666;23.326;2022-07-04T05:59:19;3.28;;;2.97;;
23658;SDS011;12006;42.666;23.326;2022-07-04T06:01:44;4.20;;;3.90;;
23658;SDS011;12006;42.666;23.326;2022-07-04T06:04:09;3.72;;;2.70;;
23658;SDS011;12006;42.666;23.326;2022-07-04T06:06:35;3.50;;;3.20;;
23658;SDS011;12006;42.666;23.326;2022-07-04T06:09:00;7.25;;;3.08;;
23658;SDS011;12006;42.666;23.326;2022-07-04T06:11:25;3.97;;;3.28;;
23658;SDS011;12006;42.666;23.326;2022-07-04T06:13:51;4.65;;;3.50;;
23658;SDS011;12006;42.666;23.326;2022-07-04T06:16:16;4.60;;;4.20;;
23658;SDS011;12006;42.666;23.326;2022-07-04T06:18:42;4.05;;;2.60;;
23658;SDS011;12006;42.666;23.326;2022-07-04T06:21:07;3.40;;;2.80;;
23658;SDS011;12006;42.666;23.326;2022-07-04T06:23:33;3.58;;;2.33;;
23658;SDS011;12006;42.666;23.326;2022-07-04T06:25:58;3.55;;;3.25;;
23658;SDS011;12006;42.666;23.326;2022-07-04T06:28:23;4.28;;;3.88;;
23658;SDS011;12006;42.666;23.326;2022-07-04T06:30:49;3.65;;;3.35;;
23658;SDS011;12006;42.666;23.326;2022-07-04T06:33:14;5.90;;;5.32;;
23658;SDS011;12006;42.666;23.326;2022-07-04T06:35:39;3.58;;;3.35;;
23658;SDS011;12006;42.666;23.326;2022-07-04T06:38:21;5.35;;;4.18;;
23658;SDS011;12006;42.666;23.326;2022-07-04T06:40:48;3.60;;;2.90;;
23658;SDS011;12006;42.666;23.326;2022-07-04T06:43:14;2.70;;;2.40;;
23658;SDS011;12006;42.666;23.326;2022-07-04T06:45:39;2.33;;;2.13;;
23658;SDS011;12006;42.666;23.326;2022-07-04T06:48:05;4.93;;;3.50;;
23658;SDS011;12006;42.666;23.326;2022-07-04T06:50:31;3.35;;;2.80;;
23658;SDS011;12006;42.666;23.326;2022-07-04T06:53:01;2.75;;;2.22;;
23658;SDS011;12006;42.666;23.326;2022-07-04T06:55:39;2.40;;;2.20;;
23658;SDS011;12006;42.666;23.326;2022-07-04T06:58:04;3.65;;;2.35;;
23658;SDS011;12006;42.666;23.326;2022-07-04T07:00:30;3.25;;;2.88;;
23658;SDS011;12006;42.666;23.326;2022-07-04T07:02:56;2.58;;;2.35;;
23658;SDS011;12006;42.666;23.326;2022-07-04T07:05:23;2.63;;;2.30;;
23658;SDS011;12006;42.666;23.326;2022-07-04T07:07:48;3.20;;;2.53;;
23658;SDS011;12006;42.666;23.326;2022-07-04T07:10:13;2.38;;;2.17;;
23658;SDS011;12006;42.666;23.326;2022-07-04T07:12:39;3.28;;;2.42;;
23658;SDS011;12006;42.666;23.326;2022-07-04T07:15:04;2.85;;;2.65;;
23658;SDS011;12006;42.666;23.326;2022-07-04T07:17:29;2.63;;;2.42;;
23658;SDS011;12006;42.666;23.326;2022-07-04T07:19:55;3.10;;;2.50;;
23658;SDS011;12006;42.666;23.326;2022-07-04T07:22:20;2.70;;;2.50;;
23658;SDS011;12006;42.666;23.326;2022-07-04T07:24:45;2.72;;;2.50;;
23658;SDS011;12006;42.666;23.326;2022-07-04T07:27:11;6.07;;;5.47;;
23658;SDS011;12006;42.666;23.326;2022-07-04T07:29:39;4.88;;;4.10;;
23658;SDS011;12006;42.666;23.326;2022-07-04T07:32:04;3.60;;;3.03;;
23658;SDS011;12006;42.666;23.326;2022-07-04T07:34:30;3.03;;;2.65;;
23658;SDS011;12006;42.666;23.326;2022-07-04T07:36:55;2.95;;;2.70;;
23658;SDS011;12006;42.666;23.326;2022-07-04T07:39:21;2.90;;;2.50;;
23658;SDS011;12006;42.666;23.326;2022-07-04T07:41:46;2.85;;;2.65;;
23658;SDS011;12006;42.666;23.326;2022-07-04T07:44:11;3.40;;;2.75;;
23658;SDS011;12006;42.666;23.326;2022-07-04T07:46:37;2.85;;;2.65;;
23658;SDS011;12006;42.666;23.326;2022-07-04T07:49:02;3.20;;;2.80;;
23658;SDS011;12006;42.666;23.326;2022-07-04T07:51:28;2.90;;;2.60;;
23658;SDS011;12006;42.666;23.326;2022-07-04T07:53:53;2.92;;;2.72;;
23658;SDS011;12006;42.666;23.326;2022-07-04T07:56:19;3.50;;;2.92;;
23658;SDS011;12006;42.666;23.326;2022-07-04T07:58:44;3.25;;;2.95;;
23658;SDS011;12006;42.666;23.326;2022-07-04T08:01:09;3.33;;;3.03;;
23658;SDS011;12006;42.666;23.326;2022-07-04T08:03:34;3.03;;;2.50;;
23658;SDS011;12006;42.666;23.326;2022-07-04T08:06:18;4.45;;;4.05;;
23658;SDS011;12006;42.666;23.326;2022-07-04T08:08:44;7.75;;;3.47;;
23658;SDS011;12006;42.666;23.326;2022-07-04T08:11:10;3.05;;;2.83;;
23658;SDS011;12006;42.666;23.326;2022-07-04T08:13:35;3.35;;;2.97;;
23658;SDS011;12006;42.666;23.326;2022-07-04T08:16:00;3.78;;;3.35;;
23658;SDS011;12006;42.666;23.326;2022-07-04T08:18:25;3.40;;;3.20;;
23658;SDS011;12006;42.666;23.326;2022-07-04T08:20:51;4.45;;;4.05;;
23658;SDS011;12006;42.666;23.326;2022-07-04T08:23:16;5.30;;;4.43;;
23658;SDS011;12006;42.666;23.326;2022-07-04T08:25:42;3.40;;;3.10;;
23658;SDS011;12006;42.666;23.326;2022-07-04T08:28:07;3.35;;;3.05;;
23658;SDS011;12006;42.666;23.326;2022-07-04T08:30:32;3.00;;;2.80;;
23658;SDS011;12006;42.666;23.326;2022-07-04T08:32:58;3.50;;;3.20;;
23658;SDS011;12006;42.666;23.326;2022-07-04T08:35:23;3.65;;;3.35;;
23658;SDS011;12006;42.666;23.326;2022-07-04T08:37:48;3.20;;;2.90;;
23658;SDS011;12006;42.666;23.326;2022-07-04T08:40:19;4.30;;;3.10;;
23658;SDS011;12006;42.666;23.326;2022-07-04T08:42:44;3.50;;;3.20;;
23658;SDS011;12006;42.666;23.326;2022-07-04T08:45:09;3.63;;;3.33;;
23658;SDS011;12006;42.666;23.326;2022-07-04T08:47:36;4.10;;;3.70;;
23658;SDS011;12006;42.666;23.326;2022-07-04T08:50:07;4.82;;;3.38;;
23658;SDS011;12006;42.666;23.326;2022-07-04T08:52:36;3.60;;;3.30;;
23658;SDS011;12006;42.666;23.326;2022-07-04T08:55:02;3.90;;;3.50;;
23658;SDS011;12006;42.666;23.326;2022-07-04T08:57:46;4.55;;;4.18;;
23658;SDS011;12006;42.666;23.326;2022-07-04T09:00:31;4.03;;;3.72;;
23658;SDS011;12006;42.666;23.326;2022-07-04T09:02:57;10.30;;;7.90;;
23658;SDS011;12006;42.666;23.326;2022-07-04T09:05:23;4.82;;;4.30;;
23658;SDS011;12006;42.666;23.326;2022-07-04T09:07:49;5.35;;;3.97;;
23658;SDS011;12006;42.666;23.326;2022-07-04T09:10:14;4.05;;;3.75;;
23658;SDS011;12006;42.666;23.326;2022-07-04T09:12:41;13.57;;;12.13;;
23658;SDS011;12006;42.666;23.326;2022-07-04T09:15:07;8.27;;;7.43;;
23658;SDS011;12006;42.666;23.326;2022-07-04T09:17:32;6.97;;;5.90;;
23658;SDS011;12006;42.666;23.326;2022-07-04T09:20:11;5.38;;;4.95;;
23658;SDS011;12006;42.666;23.326;2022-07-04T09:22:37;4.32;;;4.03;;
23658;SDS011;12006;42.666;23.326;2022-07-04T09:25:02;6.18;;;5.57;;
23658;SDS011;12006;42.666;23.326;2022-07-04T09:27:29;4.78;;;4.38;;
23658;SDS011;12006;42.666;23.326;2022-07-04T09:29:55;3.72;;;3.42;;
23658;SDS011;12006;42.666;23.326;2022-07-04T09:32:40;4.15;;;3.78;;
23658;SDS011;12006;42.666;23.326;2022-07-04T09:35:07;3.63;;;3.38;;
23658;SDS011;12006;42.666;23.326;2022-07-04T09:37:40;3.83;;;3.53;;
23658;SDS011;12006;42.666;23.326;2022-07-04T09:40:07;3.75;;;3.45;;
23658;SDS011;12006;42.666;23.326;2022-07-04T09:42:36;4.43;;;4.03;;
23658;SDS011;12006;42.666;23.326;2022-07-04T09:45:09;3.47;;;3.28;;
23658;SDS011;12006;42.666;23.326;2022-07-04T09:47:35;3.42;;;3.13;;
23658;SDS011;12006;42.666;23.326;2022-07-04T09:50:06;3.85;;;3.63;;
23658;SDS011;12006;42.666;23.326;2022-07-04T09:52:31;3.92;;;3.63;;
23658;SDS011;12006;42.666;23.326;2022-07-04T09:55:01;3.97;;;3.20;;
23658;SDS011;12006;42.666;23.326;2022-07-04T09:57:32;4.05;;;3.75;;
23658;SDS011;12006;42.666;23.326;2022-07-04T10:02:41;7.03;;;6.35;;
23658;SDS011;12006;42.666;23.326;2022-07-04T10:05:07;6.18;;;5.65;;
23658;SDS011;12006;42.666;23.326;2022-07-04T10:09:58;4.18;;;3.88;;
23658;SDS011;12006;42.666;23.326;2022-07-04T10:12:29;4.50;;;4.20;;
23658;SDS011;12006;42.666;23.326;2022-07-04T10:14:57;4.82;;;4.43;;
23658;SDS011;12006;42.666;23.326;2022-07-04T10:17:22;4.80;;;3.92;;
23658;SDS011;12006;42.666;23.326;2022-07-04T10:19:48;4.45;;;3.95;;
23658;SDS011;12006;42.666;23.326;2022-07-04T10:22:17;3.80;;;3.50;;
23658;SDS011;12006;42.666;23.326;2022-07-04T10:24:43;3.75;;;3.47;;
23658;SDS011;12006;42.666;23.326;2022-07-04T10:27:08;5.43;;;3.97;;
23658;SDS011;12006;42.666;23.326;2022-07-04T10:29:33;4.25;;;3.92;;
23658;SDS011;12006;42.666;23.326;2022-07-04T10:31:59;4.75;;;4.35;;
23658;SDS011;12006;42.666;23.326;2022-07-04T10:34:24;8.10;;;4.10;;
23658;SDS011;12006;42.666;23.326;2022-07-04T10:36:51;5.07;;;4.57;;
23658;SDS011;12006;42.666;23.326;2022-07-04T10:39:21;3.88;;;3.58;;
23658;SDS011;12006;42.666;23.326;2022-07-04T10:44:38;4.60;;;4.30;;
23658;SDS011;12006;42.666;23.326;2022-07-04T10:47:04;4.68;;;4.35;;
23658;SDS011;12006;42.666;23.326;2022-07-04T10:49:29;4.35;;;3.83;;
23658;SDS011;12006;42.666;23.326;2022-07-04T10:52:01;4.40;;;4.00;;
23658;SDS011;12006;42.666;23.326;2022-07-04T10:54:34;4.13;;;3.83;;
23658;SDS011;12006;42.666;23.326;2022-07-04T10:57:13;5.00;;;4.65;;
23658;SDS011;12006;42.666;23.326;2022-07-04T10:59:40;3.88;;;3.60;;
23658;SDS011;12006;42.666;23.326;2022-07-04T11:07:09;4.38;;;4.07;;
23658;SDS011;12006;42.666;23.326;2022-07-04T11:09:34;4.38;;;4.07;;
23658;SDS011;12006;42.666;23.326;2022-07-04T11:12:00;4.72;;;4.32;;
23658;SDS011;12006;42.666;23.326;2022-07-04T11:14:29;4.25;;;3.88;;
23658;SDS011;12006;42.666;23.326;2022-07-04T11:16:55;4.05;;;3.75;;
23658;SDS011;12006;42.666;23.326;2022-07-04T11:19:20;4.00;;;3.70;;
23658;SDS011;12006;42.666;23.326;2022-07-04T11:21:46;3.67;;;3.38;;
23658;SDS011;12006;42.666;23.326;2022-07-04T11:24:12;3.80;;;3.47;;
23658;SDS011;12006;42.666;23.326;2022-07-04T11:26:37;4.15;;;3.83;;
23658;SDS011;12006;42.666;23.326;2022-07-04T11:29:02;3.95;;;3.65;;
23658;SDS011;12006;42.666;23.326;2022-07-04T11:31:34;4.22;;;3.78;;
23658;SDS011;12006;42.666;23.326;2022-07-04T11:34:00;4.05;;;3.75;;
23658;SDS011;12006;42.666;23.326;2022-07-04T11:36:25;4.07;;;3.78;;
23658;SDS011;12006;42.666;23.326;2022-07-04T11:38:58;3.78;;;3.47;;
23658;SDS011;12006;42.666;23.326;2022-07-04T11:44:08;3.58;;;3.38;;
23658;SDS011;12006;42.666;23.326;2022-07-04T11:49:27;3.95;;;3.65;;
23658;SDS011;12006;42.666;23.326;2022-07-04T11:51:52;4.60;;;4.22;;
23658;SDS011;12006;42.666;23.326;2022-07-04T11:54:20;4.57;;;4.00;;
23658;SDS011;12006;42.666;23.326;2022-07-04T11:56:46;4.65;;;3.70;;
23658;SDS011;12006;42.666;23.326;2022-07-04T11:59:12;4.20;;;3.78;;
23658;SDS011;12006;42.666;23.326;2022-07-04T12:01:38;4.15;;;3.75;;
23658;SDS011;12006;42.666;23.326;2022-07-04T12:04:17;4.47;;;4.18;;
23658;SDS011;12006;42.666;23.326;2022-07-04T12:06:43;4.10;;;3.80;;
23658;SDS011;12006;42.666;23.326;2022-07-04T12:09:08;5.05;;;4.55;;
23658;SDS011;12006;42.666;23.326;2022-07-04T12:11:50;4.45;;;4.05;;
23658;SDS011;12006;42.666;23.326;2022-07-04T12:14:15;4.13;;;3.88;;
23658;SDS011;12006;42.666;23.326;2022-07-04T12:16:40;4.25;;;3.92;;
23658;SDS011;12006;42.666;23.326;2022-07-04T12:19:09;3.90;;;3.60;;
23658;SDS011;12006;42.666;23.326;2022-07-04T12:21:35;4.97;;;3.67;;
23658;SDS011;12006;42.666;23.326;2022-07-04T12:24:00;4.30;;;3.90;;
23658;SDS011;12006;42.666;23.326;2022-07-04T12:26:27;4.10;;;3.83;;
23658;SDS011;12006;42.666;23.326;2022-07-04T12:28:55;4.28;;;3.97;;
23658;SDS011;12006;42.666;23.326;2022-07-04T12:31:40;4.57;;;4.28;;
23658;SDS011;12006;42.666;23.326;2022-07-04T12:34:15;4.28;;;3.95;;
23658;SDS011;12006;42.666;23.326;2022-07-04T12:36:50;5.35;;;4.05;;
23658;SDS011;12006;42.666;23.326;2022-07-04T12:39:32;4.75;;;4.30;;
23658;SDS011;12006;42.666;23.326;2022-07-04T12:42:10;5.22;;;4.75;;
23658;SDS011;12006;42.666;23.326;2022-07-04T12:44:36;5.18;;;4.78;;
23658;SDS011;12006;42.666;23.326;2022-07-04T12:47:05;4.35;;;4.05;;
23658;SDS011;12006;42.666;23.326;2022-07-04T12:49:30;4.22;;;3.88;;
23658;SDS011;12006;42.666;23.326;2022-07-04T12:52:12;4.03;;;3.72;;
23658;SDS011;12006;42.666;23.326;2022-07-04T12:54:37;4.60;;;4.05;;
23658;SDS011;12006;42.666;23.326;2022-07-04T12:57:15;4.07;;;3.78;;
23658;SDS011;12006;42.666;23.326;2022-07-04T12:59:41;4.20;;;3.90;;
23658;SDS011;12006;42.666;23.326;2022-07-04T13:02:07;3.95;;;3.55;;
23658;SDS011;12006;42.666;23.326;2022-07-04T13:04:32;3.78;;;3.58;;
23658;SDS011;12006;42.666;23.326;2022-07-04T13:06:58;3.70;;;3.50;;
23658;SDS011;12006;42.666;23.326;2022-07-04T13:09:24;4.13;;;3.78;;
23658;SDS011;12006;42.666;23.326;2022-07-04T13:11:49;4.75;;;4.10;;
23658;SDS011;12006;42.666;23.326;2022-07-04T13:14:33;3.83;;;3.63;;
23658;SDS011;12006;42.666;23.326;2022-07-04T13:16:58;3.88;;;3.58;;
23658;SDS011;12006;42.666;23.326;2022-07-04T13:19:24;3.95;;;3.65;;
23658;SDS011;12006;42.666;23.326;2022-07-04T13:21:49;3.80;;;3.50;;
23658;SDS011;12006;42.666;23.326;2022-07-04T13:24:15;6.10;;;5.70;;
23658;SDS011;12006;42.666;23.326;2022-07-04T13:26:40;17.80;;;16.30;;
23658;SDS011;12006;42.666;23.326;2022-07-04T13:29:07;7.97;;;7.38;;
23658;SDS011;12006;42.666;23.326;2022-07-04T13:31:32;5.90;;;5.47;;
23658;SDS011;12006;42.666;23.326;2022-07-04T13:33:58;4.60;;;4.30;;
23658;SDS011;12006;42.666;23.326;2022-07-04T13:36:23;4.28;;;3.97;;
23658;SDS011;12006;42.666;23.326;2022-07-04T13:38:48;4.70;;;4.20;;
23658;SDS011;12006;42.666;23.326;2022-07-04T13:41:14;5.45;;;5.05;;
23658;SDS011;12006;42.666;23.326;2022-07-04T13:43:39;4.32;;;4.03;;
23658;SDS011;12006;42.666;23.326;2022-07-04T13:46:04;4.03;;;3.80;;
23658;SDS011;12006;42.666;23.326;2022-07-04T13:48:30;4.10;;;3.80;;
23658;SDS011;12006;42.666;23.326;2022-07-04T13:50:55;4.50;;;4.20;;
23658;SDS011;12006;42.666;23.326;2022-07-04T13:53:21;6.00;;;3.60;;
23658;SDS011;12006;42.666;23.326;2022-07-04T13:55:46;4.68;;;4.38;;
23658;SDS011;12006;42.666;23.326;2022-07-04T13:58:11;4.57;;;4.28;;
23658;SDS011;12006;42.666;23.326;2022-07-04T14:00:37;4.57;;;4.22;;
23658;SDS011;12006;42.666;23.326;2022-07-04T14:03:03;4.15;;;3.75;;
23658;SDS011;12006;42.666;23.326;2022-07-04T14:05:29;4.43;;;4.13;;
23658;SDS011;12006;42.666;23.326;2022-07-04T14:07:55;4.15;;;3.85;;
23658;SDS011;12006;42.666;23.326;2022-07-04T14:10:20;4.93;;;4.53;;
23658;SDS011;12006;42.666;23.326;2022-07-04T14:12:45;4.88;;;4.57;;
23658;SDS011;12006;42.666;23.326;2022-07-04T14:15:11;4.47;;;4.07;;
23658;SDS011;12006;42.666;23.326;2022-07-04T14:17:37;5.45;;;5.05;;
23658;SDS011;12006;42.666;23.326;2022-07-04T14:20:06;5.10;;;4.60;;
23658;SDS011;12006;42.666;23.326;2022-07-04T14:22:33;5.82;;;5.38;;
23658;SDS011;12006;42.666;23.326;2022-07-04T14:24:58;4.47;;;4.07;;
23658;SDS011;12006;42.666;23.326;2022-07-04T14:27:23;5.63;;;5.22;;
23658;SDS011;12006;42.666;23.326;2022-07-04T14:29:49;6.18;;;5.57;;
23658;SDS011;12006;42.666;23.326;2022-07-04T14:32:14;5.20;;;4.80;;
23658;SDS011;12006;42.666;23.326;2022-07-04T14:34:39;5.82;;;5.32;;
23658;SDS011;12006;42.666;23.326;2022-07-04T14:37:05;5.43;;;4.93;;
23658;SDS011;12006;42.666;23.326;2022-07-04T14:39:30;7.00;;;6.40;;
23658;SDS011;12006;42.666;23.326;2022-07-04T14:41:55;5.63;;;5.22;;
23658;SDS011;12006;42.666;23.326;2022-07-04T14:44:20;5.68;;;5.28;;
23658;SDS011;12006;42.666;23.326;2022-07-04T14:46:46;5.95;;;5.55;;
23658;SDS011;12006;42.666;23.326;2022-07-04T14:49:11;5.50;;;5.10;;